Time;durP1;ratioP1;P1;durP2;ratioP2;P2;SDS_P1;SDS_P2;PMS_P1;PMS_P2;Temp;Humidity;BMP_temperature;BMP_pressure;BME280_temperature;BME280_humidity;BME280_pressure;Samples;Min_cycle;Max_cycle;Signal;HPM_P1;HPM_P2
2023/09/13 00:00:50;;;;;;;43.70;39.27;;;;;;;;;;4884533;29;20642;-72
2023/09/13 00:03:16;;;;;;;46.00;41.50;;;;;;;;;;4886211;29;21144;-71
2023/09/13 00:05:42;;;;;;;45.37;40.67;;;;;;;;;;4886783;29;20515;-71
2023/09/13 00:08:08;;;;;;;45.50;41.00;;;;;;;;;;4884325;29;20437;-71
2023/09/13 00:10:34;;;;;;;51.40;41.63;;;;;;;;;;4879954;29;20468;-72
2023/09/13 00:13:00;;;;;;;45.10;40.73;;;;;;;;;;4885702;29;20892;-72
2023/09/13 00:15:26;;;;;;;45.37;40.90;;;;;;;;;;4886716;29;20460;-72
2023/09/13 00:17:52;;;;;;;45.67;40.87;;;;;;;;;;4886042;29;20445;-72
2023/09/13 00:20:18;;;;;;;46.17;41.40;;;;;;;;;;4885210;29;20464;-73
2023/09/13 00:22:45;;;;;;;50.03;44.93;;;;;;;;;;4886412;29;20449;-71
2023/09/13 00:25:11;;;;;;;50.27;44.57;;;;;;;;;;4882703;29;20812;-71
2023/09/13 00:27:37;;;;;;;48.03;43.13;;;;;;;;;;4886325;29;20945;-72
2023/09/13 00:30:06;;;;;;;56.23;49.87;;;;;;;;;;4886066;29;20452;-72
2023/09/13 00:32:32;;;;;;;53.80;48.10;;;;;;;;;;4886287;29;20989;-73
2023/09/13 00:34:58;;;;;;;53.43;47.63;;;;;;;;;;4886375;29;20507;-73
2023/09/13 00:37:24;;;;;;;51.67;46.37;;;;;;;;;;4886316;29;20453;-72
2023/09/13 00:39:50;;;;;;;51.47;46.37;;;;;;;;;;4884351;29;20552;-72
2023/09/13 00:42:16;;;;;;;49.27;44.30;;;;;;;;;;4886259;29;20451;-72
2023/09/13 00:44:42;;;;;;;52.07;46.47;;;;;;;;;;4885457;29;20494;-72
2023/09/13 00:47:08;;;;;;;50.93;45.47;;;;;;;;;;4886815;29;20432;-72
2023/09/13 00:49:34;;;;;;;48.70;43.77;;;;;;;;;;4886176;29;20447;-72
2023/09/13 00:52:01;;;;;;;50.00;44.97;;;;;;;;;;4885720;29;20520;-72
2023/09/13 00:54:27;;;;;;;51.53;46.10;;;;;;;;;;4887389;29;20797;-72
2023/09/13 00:56:53;;;;;;;50.57;45.27;;;;;;;;;;4888673;29;20464;-72
2023/09/13 00:59:19;;;;;;;49.80;44.50;;;;;;;;;;4888453;29;21031;-72
2023/09/13 01:01:46;;;;;;;49.80;44.67;;;;;;;;;;4886946;29;20480;-72
2023/09/13 01:04:12;;;;;;;48.70;43.40;;;;;;;;;;4889315;29;20455;-72
2023/09/13 01:06:38;;;;;;;49.60;44.40;;;;;;;;;;4889601;29;20441;-72
2023/09/13 01:09:04;;;;;;;49.90;44.40;;;;;;;;;;4886739;29;20474;-72
2023/09/13 01:11:30;;;;;;;50.33;45.13;;;;;;;;;;4889285;29;20444;-72
2023/09/13 01:13:56;;;;;;;56.17;45.97;;;;;;;;;;4888122;29;20455;-72
2023/09/13 01:16:28;;;;;;;51.27;45.83;;;;;;;;;;4889299;29;20505;-72
2023/09/13 01:18:54;;;;;;;55.17;47.17;;;;;;;;;;4888631;29;20543;-72
2023/09/13 01:21:40;;;;;;;55.53;48.33;;;;;;;;;;4889390;29;20532;-72
2023/09/13 01:24:23;;;;;;;53.17;47.37;;;;;;;;;;4886986;29;20607;-72
2023/09/13 01:27:03;;;;;;;61.63;48.50;;;;;;;;;;4888340;29;22242;-72
2023/09/13 01:29:31;;;;;;;54.47;47.53;;;;;;;;;;4888635;29;21156;-72
2023/09/13 01:31:57;;;;;;;56.30;49.33;;;;;;;;;;4888694;29;20527;-72
2023/09/13 01:34:23;;;;;;;54.23;48.03;;;;;;;;;;4888139;29;20536;-72
2023/09/13 01:36:49;;;;;;;51.67;44.90;;;;;;;;;;4888605;29;20464;-73
2023/09/13 01:39:15;;;;;;;50.43;43.37;;;;;;;;;;4886622;29;20810;-73
2023/09/13 01:41:51;;;;;;;56.77;47.00;;;;;;;;;;4887347;29;20520;-73
2023/09/13 01:44:17;;;;;;;56.33;45.33;;;;;;;;;;4888688;29;20984;-73
2023/09/13 01:46:44;;;;;;;46.77;41.50;;;;;;;;;;4887891;29;20464;-73
2023/09/13 01:49:13;;;;;;;52.73;43.20;;;;;;;;;;4887807;29;20471;-72
2023/09/13 01:51:39;;;;;;;45.13;38.30;;;;;;;;;;4887322;29;20428;-72
2023/09/13 01:54:06;;;;;;;48.40;41.70;;;;;;;;;;4885921;29;20519;-72
2023/09/13 01:56:32;;;;;;;44.60;39.47;;;;;;;;;;4888143;29;20472;-72
2023/09/13 01:58:58;;;;;;;41.80;33.33;;;;;;;;;;4887419;29;20465;-72
2023/09/13 02:01:24;;;;;;;36.03;32.33;;;;;;;;;;4885068;29;20473;-72
2023/09/13 02:03:50;;;;;;;35.60;29.03;;;;;;;;;;4886865;29;20472;-72
2023/09/13 02:06:16;;;;;;;31.93;27.97;;;;;;;;;;4887709;29;20466;-72
2023/09/13 02:08:43;;;;;;;31.27;28.00;;;;;;;;;;4886955;29;20463;-73
2023/09/13 02:11:09;;;;;;;32.67;29.20;;;;;;;;;;4883403;29;20447;-73
2023/09/13 02:13:35;;;;;;;34.00;28.53;;;;;;;;;;4889869;29;20854;-74
2023/09/13 02:16:02;;;;;;;33.70;30.20;;;;;;;;;;4886242;29;20470;-72
2023/09/13 02:18:28;;;;;;;34.70;29.77;;;;;;;;;;4889819;29;20445;-73
2023/09/13 02:20:54;;;;;;;39.00;31.50;;;;;;;;;;4890212;29;20440;-72
2023/09/13 02:23:20;;;;;;;37.23;33.07;;;;;;;;;;4884284;29;20440;-72
2023/09/13 02:25:46;;;;;;;38.30;33.93;;;;;;;;;;4882925;29;20952;-72
2023/09/13 02:28:13;;;;;;;41.60;34.50;;;;;;;;;;4887897;29;20437;-72
2023/09/13 02:30:39;;;;;;;49.60;38.50;;;;;;;;;;4889034;29;20449;-72
2023/09/13 02:33:06;;;;;;;45.33;35.03;;;;;;;;;;4887856;29;20583;-72
2023/09/13 02:35:32;;;;;;;43.37;36.50;;;;;;;;;;4888373;29;20484;-72
2023/09/13 02:37:58;;;;;;;46.33;37.10;;;;;;;;;;4887684;29;20468;-72
2023/09/13 02:40:24;;;;;;;45.17;38.37;;;;;;;;;;4888132;29;20488;-73
2023/09/13 02:42:50;;;;;;;52.43;41.93;;;;;;;;;;4886422;29;20528;-72
2023/09/13 02:45:16;;;;;;;52.80;40.20;;;;;;;;;;4883239;29;20540;-73
2023/09/13 02:47:43;;;;;;;51.03;40.30;;;;;;;;;;4886396;29;20814;-71
2023/09/13 02:50:09;;;;;;;52.93;40.30;;;;;;;;;;4888412;29;20445;-72
2023/09/13 02:52:35;;;;;;;53.60;42.40;;;;;;;;;;4883754;29;20540;-72
2023/09/13 02:55:05;;;;;;;54.20;41.37;;;;;;;;;;4882744;29;20556;-72
2023/09/13 02:57:31;;;;;;;58.57;43.80;;;;;;;;;;4887823;29;20431;-74
2023/09/13 02:59:57;;;;;;;61.80;43.97;;;;;;;;;;4886328;29;20477;-72
2023/09/13 03:02:23;;;;;;;56.67;39.50;;;;;;;;;;4880439;29;20460;-72
2023/09/13 03:04:50;;;;;;;60.90;46.33;;;;;;;;;;4888694;29;21013;-72
2023/09/13 03:07:16;;;;;;;59.07;43.00;;;;;;;;;;4883987;29;20466;-72
2023/09/13 03:09:42;;;;;;;63.57;46.37;;;;;;;;;;4883571;29;20542;-71
2023/09/13 03:12:08;;;;;;;67.23;48.00;;;;;;;;;;4888453;29;20540;-73
2023/09/13 03:14:34;;;;;;;62.80;45.93;;;;;;;;;;4887730;29;20564;-73
2023/09/13 03:17:00;;;;;;;67.93;47.37;;;;;;;;;;4893457;29;20471;-72
2023/09/13 03:19:26;;;;;;;64.77;46.77;;;;;;;;;;4885595;29;20475;-73
2023/09/13 03:21:52;;;;;;;60.70;46.93;;;;;;;;;;4887419;29;20452;-72
2023/09/13 03:24:17;;;;;;;63.57;47.70;;;;;;;;;;4888857;29;20532;-72
2023/09/13 03:26:43;;;;;;;62.40;45.40;;;;;;;;;;4887132;29;20469;-72
2023/09/13 03:29:09;;;;;;;57.70;43.70;;;;;;;;;;4884643;29;20448;-73
2023/09/13 03:31:38;;;;;;;65.10;42.43;;;;;;;;;;4887113;29;20447;-72
2023/09/13 03:34:04;;;;;;;60.97;43.30;;;;;;;;;;4889460;29;20439;-72
2023/09/13 03:36:30;;;;;;;65.10;47.47;;;;;;;;;;4885984;29;20624;-73
2023/09/13 03:38:56;;;;;;;69.00;48.37;;;;;;;;;;4883373;29;20543;-72
2023/09/13 03:41:23;;;;;;;58.80;42.70;;;;;;;;;;4885929;29;20620;-72
2023/09/13 03:43:49;;;;;;;59.70;46.13;;;;;;;;;;4882051;29;21399;-71
2023/09/13 03:46:16;;;;;;;63.53;47.07;;;;;;;;;;4885283;29;20453;-72
2023/09/13 03:48:42;;;;;;;62.97;44.87;;;;;;;;;;4886351;29;20467;-71
2023/09/13 03:51:08;;;;;;;71.13;50.97;;;;;;;;;;4883736;29;21236;-73
2023/09/13 03:53:35;;;;;;;81.13;49.87;;;;;;;;;;4886699;29;21185;-71
2023/09/13 03:56:01;;;;;;;68.07;46.10;;;;;;;;;;4888822;29;20633;-73
2023/09/13 03:58:28;;;;;;;71.63;48.50;;;;;;;;;;4888250;29;20568;-72
2023/09/13 04:00:54;;;;;;;70.93;49.23;;;;;;;;;;4880952;29;20937;-73
2023/09/13 04:03:21;;;;;;;66.47;47.30;;;;;;;;;;4878910;29;20492;-71
2023/09/13 04:05:47;;;;;;;62.20;43.33;;;;;;;;;;4885525;29;20485;-72
2023/09/13 04:08:13;;;;;;;63.33;42.13;;;;;;;;;;4879386;29;20549;-72
2023/09/13 04:10:39;;;;;;;61.53;45.00;;;;;;;;;;4868485;29;20993;-72
2023/09/13 04:13:05;;;;;;;59.73;45.10;;;;;;;;;;4883625;29;20454;-72
2023/09/13 04:15:31;;;;;;;62.73;46.47;;;;;;;;;;4888709;29;20452;-72
2023/09/13 04:17:57;;;;;;;63.50;45.27;;;;;;;;;;4887864;29;20437;-72
2023/09/13 04:20:23;;;;;;;65.00;46.80;;;;;;;;;;4888676;29;20421;-72
2023/09/13 04:22:50;;;;;;;69.03;47.80;;;;;;;;;;4888448;29;20445;-73
2023/09/13 04:25:16;;;;;;;62.77;46.17;;;;;;;;;;4888907;29;20424;-72
2023/09/13 04:27:45;;;;;;;65.67;44.93;;;;;;;;;;4879991;29;20457;-72
2023/09/13 04:30:12;;;;;;;65.80;47.93;;;;;;;;;;4890621;29;21074;-71
2023/09/13 04:32:38;;;;;;;66.07;46.87;;;;;;;;;;4891016;29;20440;-72
2023/09/13 04:35:04;;;;;;;68.10;46.40;;;;;;;;;;4892389;29;20539;-73
2023/09/13 04:37:30;;;;;;;60.70;45.30;;;;;;;;;;4891880;29;20444;-72
2023/09/13 04:39:57;;;;;;;67.13;47.73;;;;;;;;;;4892189;29;20417;-73
2023/09/13 04:42:23;;;;;;;60.03;44.73;;;;;;;;;;4891988;29;20811;-72
2023/09/13 04:44:49;;;;;;;63.03;45.73;;;;;;;;;;4892298;29;20473;-72
2023/09/13 04:47:16;;;;;;;66.73;47.90;;;;;;;;;;4891887;29;20440;-73
2023/09/13 04:49:41;;;;;;;60.50;46.53;;;;;;;;;;4892046;29;20417;-72
2023/09/13 04:52:09;;;;;;;64.37;45.90;;;;;;;;;;4889140;29;20460;-72
2023/09/13 04:54:36;;;;;;;59.80;45.07;;;;;;;;;;4880170;29;20930;-71
2023/09/13 04:57:02;;;;;;;66.60;45.10;;;;;;;;;;4890317;29;20468;-73
2023/09/13 04:59:41;;;;;;;60.97;46.80;;;;;;;;;;4889349;29;20952;-73
2023/09/13 05:02:06;;;;;;;69.67;44.70;;;;;;;;;;4879338;29;20947;-72
2023/09/13 05:04:32;;;;;;;62.57;43.53;;;;;;;;;;4889769;29;20440;-71
2023/09/13 05:06:58;;;;;;;69.57;48.87;;;;;;;;;;4890465;29;20492;-72
2023/09/13 05:09:24;;;;;;;68.13;47.87;;;;;;;;;;4885648;29;20811;-73
2023/09/13 05:11:50;;;;;;;70.63;49.00;;;;;;;;;;4890792;29;20575;-72
2023/09/13 05:14:16;;;;;;;62.57;46.60;;;;;;;;;;4898335;29;20457;-72
2023/09/13 05:16:42;;;;;;;65.80;47.13;;;;;;;;;;4890717;29;20487;-72
2023/09/13 05:19:08;;;;;;;64.97;48.40;;;;;;;;;;4899156;29;20479;-72
2023/09/13 05:21:34;;;;;;;69.80;47.10;;;;;;;;;;4891011;29;20468;-72
2023/09/13 05:24:01;;;;;;;64.13;45.97;;;;;;;;;;4893271;29;20870;-73
2023/09/13 05:26:27;;;;;;;72.37;48.00;;;;;;;;;;4890548;29;20596;-72
2023/09/13 05:28:52;;;;;;;65.00;48.03;;;;;;;;;;4886596;29;20488;-73
2023/09/13 05:31:19;;;;;;;65.57;44.80;;;;;;;;;;4886657;29;20469;-73
2023/09/13 05:33:45;;;;;;;64.57;45.00;;;;;;;;;;4888286;29;20734;-72
2023/09/13 05:36:15;;;;;;;56.70;40.83;;;;;;;;;;4890844;29;21139;-74
2023/09/13 05:38:42;;;;;;;59.77;43.43;;;;;;;;;;4891037;29;20445;-73
2023/09/13 05:41:08;;;;;;;64.30;46.47;;;;;;;;;;4890137;29;20418;-72
2023/09/13 05:43:41;;;;;;;60.23;43.33;;;;;;;;;;4887241;29;20449;-72
2023/09/13 05:46:08;;;;;;;60.77;46.37;;;;;;;;;;4890280;29;20413;-72
2023/09/13 05:48:34;;;;;;;60.00;44.70;;;;;;;;;;4884928;29;20441;-72
2023/09/13 05:51:00;;;;;;;60.07;46.00;;;;;;;;;;4887263;29;20425;-73
2023/09/13 05:53:26;;;;;;;58.77;44.07;;;;;;;;;;4890202;29;20512;-72
2023/09/13 05:55:52;;;;;;;61.07;45.33;;;;;;;;;;4889975;29;20475;-71
2023/09/13 05:58:19;;;;;;;59.70;41.50;;;;;;;;;;4887052;29;20448;-73
2023/09/13 06:00:48;;;;;;;62.17;42.77;;;;;;;;;;4893525;29;20468;-71
2023/09/13 06:03:16;;;;;;;54.50;41.53;;;;;;;;;;4890239;29;20500;-72
2023/09/13 06:05:42;;;;;;;58.00;42.50;;;;;;;;;;4889244;29;21243;-72
2023/09/13 06:08:08;;;;;;;47.80;38.27;;;;;;;;;;4890264;29;20448;-72
2023/09/13 06:10:34;;;;;;;61.73;44.30;;;;;;;;;;4893015;29;20449;-72
2023/09/13 06:13:00;;;;;;;58.57;42.00;;;;;;;;;;4867783;29;20456;-71
2023/09/13 06:15:26;;;;;;;61.60;42.17;;;;;;;;;;4887019;29;20849;-72
2023/09/13 06:17:53;;;;;;;56.90;42.37;;;;;;;;;;4889636;29;20505;-72
2023/09/13 06:20:19;;;;;;;55.47;39.80;;;;;;;;;;4885348;29;20450;-72
2023/09/13 06:22:45;;;;;;;56.10;40.10;;;;;;;;;;4888386;29;20456;-72
2023/09/13 06:25:11;;;;;;;54.33;42.63;;;;;;;;;;4886696;29;20449;-73
2023/09/13 06:27:37;;;;;;;55.53;42.57;;;;;;;;;;4882426;29;20461;-72
2023/09/13 06:30:03;;;;;;;57.90;41.30;;;;;;;;;;4883925;29;20463;-71
2023/09/13 06:32:29;;;;;;;51.60;39.67;;;;;;;;;;4864886;29;20961;-73
2023/09/13 06:34:56;;;;;;;57.13;43.17;;;;;;;;;;4883942;29;21528;-72
2023/09/13 06:37:22;;;;;;;61.60;43.30;;;;;;;;;;4880580;29;20921;-74
2023/09/13 06:39:48;;;;;;;51.70;37.73;;;;;;;;;;4888565;29;20455;-73
2023/09/13 06:42:14;;;;;;;52.97;39.90;;;;;;;;;;4884984;29;20524;-73
2023/09/13 06:44:40;;;;;;;49.33;37.27;;;;;;;;;;4891604;29;20477;-74
2023/09/13 06:47:06;;;;;;;55.50;41.30;;;;;;;;;;4885273;29;20460;-73
2023/09/13 06:49:32;;;;;;;49.20;36.67;;;;;;;;;;4885097;29;20527;-72
2023/09/13 06:51:58;;;;;;;53.63;36.90;;;;;;;;;;4889996;29;20436;-72
2023/09/13 06:54:24;;;;;;;45.80;35.27;;;;;;;;;;4881690;29;20481;-73
2023/09/13 06:56:50;;;;;;;54.13;39.97;;;;;;;;;;4883447;29;20500;-73
2023/09/13 06:59:16;;;;;;;51.43;38.77;;;;;;;;;;4878970;29;20449;-73
2023/09/13 07:01:42;;;;;;;55.97;37.27;;;;;;;;;;4875555;29;20457;-72
2023/09/13 07:04:08;;;;;;;44.07;34.93;;;;;;;;;;4881859;29;20453;-73
2023/09/13 07:06:34;;;;;;;52.57;37.00;;;;;;;;;;4876160;29;21283;-71
2023/09/13 07:09:00;;;;;;;46.97;36.70;;;;;;;;;;4875298;29;20520;-73
2023/09/13 07:11:28;;;;;;;47.80;37.83;;;;;;;;;;4878902;29;20445;-71
2023/09/13 07:13:54;;;;;;;49.10;35.23;;;;;;;;;;4886347;29;20445;-73
2023/09/13 07:16:20;;;;;;;49.90;39.90;;;;;;;;;;4885343;29;20562;-71
2023/09/13 07:18:46;;;;;;;47.50;35.10;;;;;;;;;;4887842;29;20440;-72
2023/09/13 07:21:12;;;;;;;51.60;38.83;;;;;;;;;;4882117;29;20534;-73
2023/09/13 07:23:38;;;;;;;50.57;37.73;;;;;;;;;;4876561;29;20450;-73
2023/09/13 07:26:04;;;;;;;50.63;37.13;;;;;;;;;;4883585;29;20445;-73
2023/09/13 07:28:30;;;;;;;49.73;37.30;;;;;;;;;;4882922;29;20455;-72
2023/09/13 07:30:56;;;;;;;58.80;37.13;;;;;;;;;;4882363;29;20803;-72
2023/09/13 07:33:22;;;;;;;46.47;36.30;;;;;;;;;;4888226;29;20447;-72
2023/09/13 07:35:48;;;;;;;46.30;33.13;;;;;;;;;;4884187;29;20476;-72
2023/09/13 07:38:14;;;;;;;44.17;34.63;;;;;;;;;;4884573;29;20969;-73
2023/09/13 07:40:40;;;;;;;38.37;32.57;;;;;;;;;;4885852;29;20432;-72
2023/09/13 07:43:09;;;;;;;45.67;34.67;;;;;;;;;;4887312;29;20459;-74
2023/09/13 07:45:35;;;;;;;40.30;32.17;;;;;;;;;;4883777;29;20473;-72
2023/09/13 07:48:04;;;;;;;42.80;33.63;;;;;;;;;;4888036;29;21073;-72
2023/09/13 07:50:37;;;;;;;42.17;33.60;;;;;;;;;;4882657;29;20455;-72
2023/09/13 07:53:03;;;;;;;43.07;32.67;;;;;;;;;;4883874;29;20446;-71
2023/09/13 07:55:29;;;;;;;39.00;32.53;;;;;;;;;;4882476;29;20475;-72
2023/09/13 07:57:56;;;;;;;41.67;34.80;;;;;;;;;;4879493;29;20512;-72
2023/09/13 08:00:22;;;;;;;40.20;33.30;;;;;;;;;;4890098;29;20471;-71
2023/09/13 08:02:48;;;;;;;34.97;30.47;;;;;;;;;;4883280;29;20440;-72
2023/09/13 08:05:15;;;;;;;42.63;32.20;;;;;;;;;;4883976;29;20486;-71
2023/09/13 08:07:42;;;;;;;37.20;31.00;;;;;;;;;;4885590;29;20540;-72
2023/09/13 08:10:08;;;;;;;34.63;30.93;;;;;;;;;;4885403;29;20437;-72
2023/09/13 08:12:34;;;;;;;33.90;29.00;;;;;;;;;;4890273;29;21006;-72
2023/09/13 08:15:00;;;;;;;35.50;31.57;;;;;;;;;;4896398;29;20793;-72
2023/09/13 08:17:26;;;;;;;32.60;29.07;;;;;;;;;;4890873;29;20436;-73
2023/09/13 08:19:52;;;;;;;35.00;30.50;;;;;;;;;;4890283;29;20445;-71
2023/09/13 08:22:18;;;;;;;39.33;31.37;;;;;;;;;;4891164;29;20511;-72
2023/09/13 08:24:44;;;;;;;39.73;29.30;;;;;;;;;;4892808;29;20770;-73
2023/09/13 08:27:10;;;;;;;37.67;29.83;;;;;;;;;;4884241;29;20464;-72
2023/09/13 08:29:37;;;;;;;31.73;28.30;;;;;;;;;;4894210;29;20595;-73
2023/09/13 08:32:03;;;;;;;33.20;28.93;;;;;;;;;;4893916;29;20467;-72
2023/09/13 08:34:29;;;;;;;33.37;28.07;;;;;;;;;;4887236;29;20477;-73
2023/09/13 08:36:56;;;;;;;32.90;28.57;;;;;;;;;;4887771;29;20472;-71
2023/09/13 08:39:22;;;;;;;37.63;30.63;;;;;;;;;;4888252;29;20496;-72
2023/09/13 08:41:52;;;;;;;36.50;28.10;;;;;;;;;;4888692;29;20460;-71
2023/09/13 08:44:22;;;;;;;33.50;29.67;;;;;;;;;;4879921;29;20440;-71
2023/09/13 08:46:55;;;;;;;31.03;26.63;;;;;;;;;;4887309;29;20459;-71
2023/09/13 08:49:21;;;;;;;31.20;26.10;;;;;;;;;;4891560;29;20440;-72
2023/09/13 08:51:47;;;;;;;28.20;25.20;;;;;;;;;;4887527;29;20837;-72
2023/09/13 08:54:14;;;;;;;25.43;21.87;;;;;;;;;;4892562;29;20467;-71
2023/09/13 08:56:43;;;;;;;25.67;22.93;;;;;;;;;;4894569;29;20563;-71
2023/09/13 08:59:10;;;;;;;27.90;24.90;;;;;;;;;;4889603;29;20444;-72
2023/09/13 09:01:36;;;;;;;24.70;22.10;;;;;;;;;;4851184;29;1088402;-72
2023/09/13 09:04:03;;;;;;;26.97;22.97;;;;;;;;;;4890699;29;20815;-73
2023/09/13 09:06:33;;;;;;;25.63;22.97;;;;;;;;;;4889959;29;20449;-72
2023/09/13 09:08:59;;;;;;;28.83;24.37;;;;;;;;;;4886758;29;21003;-73
2023/09/13 09:11:31;;;;;;;25.77;23.27;;;;;;;;;;4887917;29;20460;-74
2023/09/13 09:14:01;;;;;;;26.50;23.70;;;;;;;;;;4889204;29;20448;-72
2023/09/13 09:16:27;;;;;;;25.43;22.93;;;;;;;;;;4887477;29;20512;-72
2023/09/13 09:18:54;;;;;;;21.53;19.47;;;;;;;;;;4894356;29;20531;-72
2023/09/13 09:21:22;;;;;;;21.70;19.77;;;;;;;;;;4881937;29;20441;-71
2023/09/13 09:23:48;;;;;;;22.20;20.00;;;;;;;;;;4889573;29;20432;-72
2023/09/13 09:26:14;;;;;;;21.17;19.30;;;;;;;;;;4893364;29;21025;-71
2023/09/13 09:28:40;;;;;;;21.90;19.83;;;;;;;;;;4895804;29;20499;-72
2023/09/13 09:31:07;;;;;;;22.03;19.70;;;;;;;;;;4890311;29;20454;-72
2023/09/13 09:33:33;;;;;;;22.50;20.50;;;;;;;;;;4893859;29;20452;-71
2023/09/13 09:36:00;;;;;;;24.33;22.10;;;;;;;;;;4888166;29;20473;-71
2023/09/13 09:38:28;;;;;;;23.07;20.77;;;;;;;;;;4888920;29;20465;-72
2023/09/13 09:40:58;;;;;;;23.60;21.27;;;;;;;;;;4892697;29;20429;-71
2023/09/13 09:43:24;;;;;;;22.00;19.90;;;;;;;;;;4882659;29;20453;-72
2023/09/13 09:45:51;;;;;;;23.93;21.53;;;;;;;;;;4886186;29;20972;-72
2023/09/13 09:48:17;;;;;;;24.13;21.93;;;;;;;;;;4887341;29;20449;-72
2023/09/13 09:50:47;;;;;;;23.87;21.67;;;;;;;;;;4885687;29;20560;-71
2023/09/13 09:53:14;;;;;;;21.60;19.60;;;;;;;;;;4888221;29;20436;-71
2023/09/13 09:55:40;;;;;;;24.27;20.83;;;;;;;;;;4890709;29;20471;-72
2023/09/13 09:58:06;;;;;;;19.17;17.57;;;;;;;;;;4891283;29;20952;-71
2023/09/13 10:00:43;;;;;;;20.77;18.87;;;;;;;;;;4894517;29;20496;-71
2023/09/13 10:03:15;;;;;;;19.50;17.90;;;;;;;;;;4888532;29;20440;-71
2023/09/13 10:05:50;;;;;;;19.20;17.27;;;;;;;;;;4889374;29;20485;-72
2023/09/13 10:08:16;;;;;;;17.60;16.20;;;;;;;;;;4893644;29;21234;-72
2023/09/13 10:10:42;;;;;;;16.67;15.03;;;;;;;;;;4887677;29;20476;-72
2023/09/13 10:13:13;;;;;;;17.17;15.60;;;;;;;;;;4886858;29;20475;-71
2023/09/13 10:15:39;;;;;;;15.17;13.97;;;;;;;;;;4892777;29;20880;-71
2023/09/13 10:18:06;;;;;;;16.57;15.20;;;;;;;;;;4890236;29;20518;-72
2023/09/13 10:20:34;;;;;;;17.07;15.60;;;;;;;;;;4881350;29;20789;-73
2023/09/13 10:23:01;;;;;;;17.40;15.80;;;;;;;;;;4885919;29;20457;-73
2023/09/13 10:25:29;;;;;;;18.17;16.67;;;;;;;;;;4885344;29;20467;-72
2023/09/13 10:27:55;;;;;;;16.93;15.50;;;;;;;;;;4895275;29;20816;-73
2023/09/13 10:30:25;;;;;;;13.43;12.43;;;;;;;;;;4875551;29;20975;-72
2023/09/13 10:32:54;;;;;;;13.93;12.73;;;;;;;;;;4876790;29;20536;-71
2023/09/13 10:35:20;;;;;;;14.30;13.20;;;;;;;;;;4876405;29;20468;-72
2023/09/13 10:37:46;;;;;;;12.10;11.10;;;;;;;;;;4886661;29;20820;-72
2023/09/13 10:40:27;;;;;;;12.57;11.67;;;;;;;;;;4886340;29;20441;-72
2023/09/13 10:42:55;;;;;;;7.13;6.73;;;;;;;;;;4883034;29;20933;-73
2023/09/13 10:45:22;;;;;;;5.70;5.50;;;;;;;;;;4879996;29;20435;-73
2023/09/13 10:47:48;;;;;;;5.77;5.47;;;;;;;;;;4884629;29;20871;-72
2023/09/13 10:50:15;;;;;;;7.73;7.43;;;;;;;;;;4885880;29;20965;-72
2023/09/13 10:52:42;;;;;;;12.03;11.33;;;;;;;;;;4883930;29;20455;-72
2023/09/13 10:55:09;;;;;;;18.10;16.90;;;;;;;;;;4885294;29;20839;-72
2023/09/13 10:57:35;;;;;;;17.93;16.80;;;;;;;;;;4886864;29;20443;-73
2023/09/13 11:00:08;;;;;;;19.87;18.43;;;;;;;;;;4887640;29;20467;-72
2023/09/13 11:02:34;;;;;;;21.70;20.30;;;;;;;;;;4881796;29;21174;-73
2023/09/13 11:05:00;;;;;;;21.27;19.77;;;;;;;;;;4882083;29;20968;-73
2023/09/13 11:07:26;;;;;;;21.07;19.67;;;;;;;;;;4881315;29;20853;-74
2023/09/13 11:09:53;;;;;;;16.40;15.50;;;;;;;;;;4876238;29;20544;-72
2023/09/13 11:12:25;;;;;;;16.93;15.80;;;;;;;;;;4880830;29;20445;-74
2023/09/13 11:14:51;;;;;;;17.47;16.57;;;;;;;;;;4886469;29;20535;-73
2023/09/13 11:17:39;;;;;;;13.97;13.17;;;;;;;;;;4891489;29;20467;-73
2023/09/13 11:20:24;;;;;;;10.70;10.30;;;;;;;;;;4884558;29;20502;-74
2023/09/13 11:23:09;;;;;;;11.60;11.10;;;;;;;;;;4886505;29;20873;-73
2023/09/13 11:25:35;;;;;;;12.10;11.50;;;;;;;;;;4881414;29;20539;-73
2023/09/13 11:28:21;;;;;;;13.10;12.30;;;;;;;;;;4882964;29;20436;-72
2023/09/13 11:30:48;;;;;;;10.43;9.73;;;;;;;;;;4884076;29;20491;-73
2023/09/13 11:33:14;;;;;;;9.60;9.10;;;;;;;;;;4876588;29;20450;-72
2023/09/13 11:35:41;;;;;;;9.63;8.67;;;;;;;;;;4878983;29;20793;-74
2023/09/13 11:38:08;;;;;;;10.80;10.10;;;;;;;;;;4875740;29;20452;-73
2023/09/13 11:40:34;;;;;;;10.53;10.00;;;;;;;;;;4888216;29;20468;-73
2023/09/13 11:43:01;;;;;;;10.47;9.60;;;;;;;;;;4888722;29;20606;-73
2023/09/13 11:45:33;;;;;;;9.60;8.97;;;;;;;;;;4886040;29;20871;-73
2023/09/13 11:48:00;;;;;;;9.00;8.70;;;;;;;;;;4885660;29;20474;-73
2023/09/13 11:50:26;;;;;;;7.50;7.20;;;;;;;;;;4883544;29;20864;-73
2023/09/13 11:53:21;;;;;;;5.43;4.87;;;;;;;;;;4890247;29;20457;-74
2023/09/13 11:55:55;;;;;;;4.07;3.87;;;;;;;;;;4869471;29;20469;-73
2023/09/13 11:58:40;;;;;;;4.00;3.80;;;;;;;;;;4879059;29;20604;-72
2023/09/13 12:01:07;;;;;;;4.20;4.10;;;;;;;;;;4885534;29;20460;-73
2023/09/13 12:03:39;;;;;;;4.90;4.80;;;;;;;;;;4886956;29;20443;-73
2023/09/13 12:06:05;;;;;;;4.53;4.23;;;;;;;;;;4884859;29;20905;-73
2023/09/13 12:08:34;;;;;;;5.07;4.87;;;;;;;;;;4884539;29;20483;-73
2023/09/13 12:11:02;;;;;;;6.83;6.63;;;;;;;;;;4882524;29;20428;-72
2023/09/13 12:13:47;;;;;;;6.00;5.60;;;;;;;;;;4890645;29;20484;-73
2023/09/13 12:16:14;;;;;;;1.93;1.83;;;;;;;;;;4885069;29;20510;-72
2023/09/13 12:18:41;;;;;;;25.97;23.87;;;;;;;;;;4891246;29;20447;-73
2023/09/13 12:21:08;;;;;;;4.97;4.60;;;;;;;;;;4890438;29;20712;-74
2023/09/13 12:23:36;;;;;;;3.37;3.27;;;;;;;;;;4889935;29;20452;-74
2023/09/13 12:26:02;;;;;;;3.87;3.77;;;;;;;;;;4888877;29;20882;-73
2023/09/13 12:28:30;;;;;;;4.20;4.10;;;;;;;;;;4889786;29;20541;-73
2023/09/13 12:30:56;;;;;;;4.00;3.83;;;;;;;;;;4885432;29;20443;-73
2023/09/13 12:33:23;;;;;;;4.07;3.97;;;;;;;;;;4890140;29;20454;-74
2023/09/13 12:35:50;;;;;;;5.30;5.20;;;;;;;;;;4886026;29;20553;-72
2023/09/13 12:38:19;;;;;;;6.00;5.70;;;;;;;;;;4887542;29;20677;-72
2023/09/13 12:40:49;;;;;;;6.70;5.90;;;;;;;;;;4890546;29;20474;-71
2023/09/13 12:43:15;;;;;;;7.27;6.87;;;;;;;;;;4889028;29;20567;-73
2023/09/13 12:45:41;;;;;;;6.93;6.63;;;;;;;;;;4889360;29;20543;-72
2023/09/13 12:48:07;;;;;;;6.17;5.93;;;;;;;;;;4888191;29;20555;-73
2023/09/13 12:50:36;;;;;;;7.50;7.00;;;;;;;;;;4892411;29;20447;-72
2023/09/13 12:53:03;;;;;;;4.97;4.90;;;;;;;;;;4885497;29;20444;-73
2023/09/13 12:55:30;;;;;;;4.07;3.77;;;;;;;;;;4887360;29;20476;-73
2023/09/13 12:58:04;;;;;;;2.93;2.90;;;;;;;;;;4891406;29;20452;-72
2023/09/13 13:00:30;;;;;;;4.33;3.60;;;;;;;;;;4890339;29;21298;-74
2023/09/13 13:02:56;;;;;;;2.77;2.77;;;;;;;;;;4889730;29;20449;-74
2023/09/13 13:05:22;;;;;;;3.00;2.80;;;;;;;;;;4894980;29;20461;-72
2023/09/13 13:07:48;;;;;;;2.77;2.67;;;;;;;;;;4883696;29;20439;-72
2023/09/13 13:10:16;;;;;;;2.87;2.80;;;;;;;;;;4883504;29;20515;-72
2023/09/13 13:12:45;;;;;;;2.60;2.50;;;;;;;;;;4891026;29;20446;-73
2023/09/13 13:15:11;;;;;;;4.50;2.70;;;;;;;;;;4887733;29;20623;-73
2023/09/13 13:17:38;;;;;;;2.57;2.40;;;;;;;;;;4892985;29;20479;-72
2023/09/13 13:20:13;;;;;;;2.07;1.97;;;;;;;;;;4889178;29;20432;-71
2023/09/13 13:22:39;;;;;;;2.07;1.90;;;;;;;;;;4886231;29;20964;-72
2023/09/13 13:25:06;;;;;;;2.40;2.30;;;;;;;;;;4887056;29;20464;-73
2023/09/13 13:27:32;;;;;;;2.63;2.60;;;;;;;;;;4886747;29;20440;-72
2023/09/13 13:29:58;;;;;;;2.80;2.60;;;;;;;;;;4886561;29;20802;-73
2023/09/13 13:32:24;;;;;;;2.47;2.47;;;;;;;;;;4891169;29;20440;-72
2023/09/13 13:34:50;;;;;;;4.20;3.00;;;;;;;;;;4886842;29;20730;-74
2023/09/13 13:37:16;;;;;;;2.40;2.20;;;;;;;;;;4887271;29;20979;-72
2023/09/13 13:39:42;;;;;;;2.73;1.90;;;;;;;;;;4891127;29;20460;-73
2023/09/13 13:42:08;;;;;;;2.10;2.03;;;;;;;;;;4891247;29;21230;-71
2023/09/13 13:44:36;;;;;;;1.83;1.83;;;;;;;;;;4893057;29;20557;-71
2023/09/13 13:47:03;;;;;;;2.00;2.00;;;;;;;;;;4889640;29;20527;-72
2023/09/13 13:49:29;;;;;;;2.23;2.10;;;;;;;;;;4876807;29;20454;-72
2023/09/13 13:51:55;;;;;;;1.80;1.70;;;;;;;;;;4886895;29;20439;-72
2023/09/13 13:54:22;;;;;;;1.90;1.80;;;;;;;;;;4883280;29;20446;-72
2023/09/13 13:56:48;;;;;;;2.53;2.43;;;;;;;;;;4888086;29;20612;-73
2023/09/13 13:59:15;;;;;;;2.97;1.97;;;;;;;;;;4887147;29;20436;-73
2023/09/13 14:01:41;;;;;;;1.90;1.90;;;;;;;;;;4883059;29;20491;-72
2023/09/13 14:04:07;;;;;;;1.80;1.70;;;;;;;;;;4891909;29;20439;-74
2023/09/13 14:06:33;;;;;;;2.20;1.60;;;;;;;;;;4890861;29;20779;-74
2023/09/13 14:09:03;;;;;;;1.80;1.80;;;;;;;;;;4883863;29;20440;-72
2023/09/13 14:11:29;;;;;;;1.80;1.70;;;;;;;;;;4877682;29;20511;-74
2023/09/13 14:13:55;;;;;;;2.40;1.67;;;;;;;;;;4889769;29;20504;-74
2023/09/13 14:16:21;;;;;;;2.00;1.90;;;;;;;;;;4885715;29;20987;-73
2023/09/13 14:18:47;;;;;;;1.70;1.60;;;;;;;;;;4884500;29;20472;-73
2023/09/13 14:21:13;;;;;;;1.70;1.70;;;;;;;;;;4894100;29;20720;-73